Time;durP1;ratioP1;P1;durP2;ratioP2;P2;SDS_P1;SDS_P2;PMS_P1;PMS_P2;Temp;Humidity;BMP_temperature;BMP_pressure;BME280_temperature;BME280_humidity;BME280_pressure;Samples;Min_cycle;Max_cycle;Signal;HPM_P1;HPM_P2
2022/09/03 00:01:00;;;;;;;2.13;0.10;;;13.90;83.20;;;;;;5046577;28;20041;-43
2022/09/03 00:03:50;;;;;;;3.95;0.20;;;13.80;83.30;;;;;;5047831;28;20037;-43
2022/09/03 00:06:37;;;;;;;1.40;0.35;;;13.70;83.50;;;;;;5047705;28;20473;-42
2022/09/03 00:09:19;;;;;;;0.65;0.20;;;13.70;84.80;;;;;;5047158;28;20049;-42
2022/09/03 00:12:04;;;;;;;0.47;0.10;;;13.60;84.40;;;;;;5047305;28;20037;-45
2022/09/03 00:14:39;;;;;;;0.73;0.10;;;13.60;84.50;;;;;;5046820;28;20083;-43
2022/09/03 00:17:11;;;;;;;2.25;0.15;;;13.50;84.70;;;;;;5047506;28;20045;-42
2022/09/03 00:19:52;;;;;;;1.63;0.20;;;13.40;85.10;;;;;;5047102;28;20087;-42
2022/09/03 00:22:26;;;;;;;2.08;0.10;;;13.50;85.20;;;;;;5047461;28;20506;-41
2022/09/03 00:24:52;;;;;;;1.88;0.25;;;13.30;85.20;;;;;;5046820;28;20514;-43
2022/09/03 00:27:25;;;;;;;3.25;0.45;;;13.40;85.40;;;;;;5047000;28;20174;-44
2022/09/03 00:29:57;;;;;;;4.03;0.60;;;13.40;85.60;;;;;;5046932;28;20094;-43
2022/09/03 00:32:57;;;;;;;1.02;0.10;;;13.40;85.70;;;;;;5047232;28;20483;-42
2022/09/03 00:35:25;;;;;;;1.73;0.17;;;13.30;86.80;;;;;;5047322;28;20116;-42
2022/09/03 00:37:52;;;;;;;1.23;0.20;;;13.30;86.20;;;;;;5047632;28;20124;-43
2022/09/03 00:40:34;;;;;;;3.58;1.10;;;13.30;86.30;;;;;;5046828;28;20043;-43
2022/09/03 00:43:21;;;;;;;1.40;0.50;;;13.30;86.70;;;;;;5047007;28;20048;-43
2022/09/03 00:46:11;;;;;;;2.83;0.20;;;13.20;87.20;;;;;;5046945;28;20049;-43
2022/09/03 00:49:04;;;;;;;0.88;0.10;;;13.20;87.10;;;;;;5046668;28;20074;-42
2022/09/03 00:51:37;;;;;;;3.70;0.20;;;13.20;86.90;;;;;;5046938;28;20040;-42
2022/09/03 00:54:30;;;;;;;1.48;0.10;;;13.50;87.10;;;;;;5047136;28;20041;-42
2022/09/03 00:57:03;;;;;;;3.25;0.20;;;13.40;87.30;;;;;;5046979;28;20048;-42
2022/09/03 00:59:43;;;;;;;1.50;0.10;;;13.20;87.00;;;;;;5046665;28;20130;-43
2022/09/03 01:02:16;;;;;;;0.95;0.20;;;13.20;87.10;;;;;;5046667;28;20050;-43
2022/09/03 01:05:02;;;;;;;1.98;0.20;;;13.20;87.20;;;;;;5046594;28;20044;-42
2022/09/03 01:07:41;;;;;;;2.92;0.25;;;13.20;87.40;;;;;;5045686;28;20048;-42
2022/09/03 01:10:16;;;;;;;1.60;0.20;;;13.10;87.50;;;;;;5046456;28;20041;-42
2022/09/03 01:13:24;;;;;;;1.00;0.13;;;13.10;87.70;;;;;;5046166;28;20569;-42
2022/09/03 01:16:02;;;;;;;2.42;0.10;;;13.10;88.30;;;;;;5042870;28;20061;-44
2022/09/03 01:18:57;;;;;;;3.55;0.20;;;13.00;88.00;;;;;;5045572;28;20052;-43
2022/09/03 01:21:26;;;;;;;0.68;0.10;;;13.00;88.10;;;;;;5028426;28;20052;-41
2022/09/03 01:24:09;;;;;;;1.95;0.20;;;13.00;88.10;;;;;;5046160;28;20052;-42
2022/09/03 01:27:10;;;;;;;3.65;0.20;;;13.00;88.70;;;;;;5046436;28;20037;-42
2022/09/03 01:29:43;;;;;;;1.45;0.20;;;12.90;88.60;;;;;;5041797;28;20060;-42
2022/09/03 01:32:28;;;;;;;4.22;0.22;;;12.90;88.60;;;;;;5046989;28;20033;-43
2022/09/03 01:35:15;;;;;;;2.95;0.22;;;12.90;88.90;;;;;;5045198;28;20163;-43
2022/09/03 01:37:52;;;;;;;0.98;0.20;;;12.80;88.90;;;;;;5044990;28;20053;-42
2022/09/03 01:40:41;;;;;;;1.55;0.13;;;12.90;89.20;;;;;;5046547;28;20049;-41
2022/09/03 01:43:31;;;;;;;1.30;0.10;;;13.20;89.40;;;;;;5046683;28;20041;-42
2022/09/03 01:46:23;;;;;;;0.50;0.15;;;12.80;89.10;;;;;;5046749;28;20044;-42
2022/09/03 01:49:10;;;;;;;0.95;0.17;;;12.80;89.90;;;;;;5043729;28;20057;-42
2022/09/03 01:51:35;;;;;;;2.17;0.17;;;13.00;89.80;;;;;;5046714;28;20080;-42
2022/09/03 01:54:23;;;;;;;0.60;0.10;;;13.10;89.80;;;;;;5046545;28;20056;-42
2022/09/03 01:57:14;;;;;;;1.08;0.20;;;12.80;90.20;;;;;;5046486;28;20386;-45
2022/09/03 02:00:00;;;;;;;4.22;0.20;;;12.70;90.10;;;;;;5046401;28;20490;-42
2022/09/03 02:02:27;;;;;;;0.90;0.30;;;12.60;90.20;;;;;;5046564;28;20052;-41
2022/09/03 02:05:08;;;;;;;0.90;0.28;;;12.90;90.40;;;;;;5046118;28;20044;-42
2022/09/03 02:07:59;;;;;;;2.60;0.20;;;12.60;90.50;;;;;;5046229;28;20045;-42
2022/09/03 02:10:31;;;;;;;3.13;0.20;;;12.50;90.60;;;;;;5046682;28;20045;-43
2022/09/03 02:13:19;;;;;;;0.57;0.10;;;12.50;90.80;;;;;;5046398;28;20049;-42
2022/09/03 02:15:48;;;;;;;1.27;0.20;;;12.40;91.20;;;;;;5046037;28;20698;-43
2022/09/03 02:18:22;;;;;;;2.55;0.20;;;12.40;91.20;;;;;;5048417;28;20491;-42
2022/09/03 02:20:51;;;;;;;3.13;0.40;;;12.30;91.30;;;;;;5050125;28;20044;-43
2022/09/03 02:23:17;;;;;;;5.82;0.30;;;12.20;91.40;;;;;;5050142;28;20037;-42
2022/09/03 02:25:51;;;;;;;7.13;0.25;;;12.30;91.60;;;;;;5049750;28;20206;-43
2022/09/03 02:28:17;;;;;;;4.30;0.20;;;12.30;91.70;;;;;;5050094;28;20046;-42
2022/09/03 02:30:43;;;;;;;4.32;0.20;;;12.50;91.80;;;;;;5049461;28;20041;-42
2022/09/03 02:33:09;;;;;;;1.30;0.20;;;12.30;91.80;;;;;;5049649;28;20037;-43
2022/09/03 02:35:35;;;;;;;1.10;0.20;;;12.80;91.90;;;;;;5049575;28;20382;-42
2022/09/03 02:38:18;;;;;;;3.00;0.20;;;12.30;91.80;;;;;;5049130;28;20041;-42
2022/09/03 02:40:44;;;;;;;2.92;0.20;;;12.40;91.90;;;;;;5049470;28;20044;-42
2022/09/03 02:43:49;;;;;;;2.15;0.20;;;12.40;92.00;;;;;;5049593;28;20093;-42
2022/09/03 02:46:23;;;;;;;0.75;0.20;;;12.60;91.90;;;;;;5049481;28;20059;-42
2022/09/03 02:48:48;;;;;;;2.22;0.20;;;12.60;91.60;;;;;;5049224;28;20047;-42
2022/09/03 02:51:14;;;;;;;0.90;0.20;;;12.60;91.40;;;;;;5049460;28;20040;-41
2022/09/03 02:53:41;;;;;;;0.85;0.10;;;12.70;91.40;;;;;;5049613;28;20067;-42
2022/09/03 02:56:07;;;;;;;3.15;0.15;;;12.70;91.30;;;;;;5049290;28;20078;-42
2022/09/03 02:58:32;;;;;;;1.35;0.30;;;12.90;91.20;;;;;;5049578;28;20044;-43
2022/09/03 03:00:58;;;;;;;3.28;0.30;;;12.90;91.10;;;;;;5049108;28;20060;-42
2022/09/03 03:03:24;;;;;;;2.15;0.22;;;13.00;91.00;;;;;;5049432;28;20376;-43
2022/09/03 03:05:54;;;;;;;1.60;0.15;;;13.00;90.80;;;;;;5048980;28;20079;-42
2022/09/03 03:08:24;;;;;;;1.13;0.20;;;13.10;90.70;;;;;;5048814;28;20049;-42
2022/09/03 03:10:57;;;;;;;1.52;0.25;;;13.20;90.60;;;;;;5049198;28;20041;-43
2022/09/03 03:13:24;;;;;;;4.75;0.20;;;13.10;90.40;;;;;;5049534;28;20479;-43
2022/09/03 03:15:50;;;;;;;1.10;0.20;;;13.30;90.40;;;;;;5048767;28;20057;-42
2022/09/03 03:18:16;;;;;;;1.08;0.17;;;13.40;90.20;;;;;;5049253;28;20044;-42
2022/09/03 03:20:42;;;;;;;0.80;0.10;;;13.40;90.10;;;;;;5049140;28;20478;-42
2022/09/03 03:23:09;;;;;;;2.05;0.25;;;13.40;90.00;;;;;;5048886;28;20049;-43
2022/09/03 03:25:37;;;;;;;1.55;0.73;;;13.60;90.00;;;;;;5048669;28;20610;-43
2022/09/03 03:28:03;;;;;;;0.93;0.20;;;13.50;89.90;;;;;;5048638;28;20045;-42
2022/09/03 03:30:30;;;;;;;1.10;0.20;;;13.50;89.80;;;;;;5047754;28;20049;-42
2022/09/03 03:32:56;;;;;;;1.15;0.28;;;13.90;90.00;;;;;;5048502;28;20055;-43
2022/09/03 03:35:22;;;;;;;2.60;0.20;;;13.50;89.80;;;;;;5048516;28;20088;-42
2022/09/03 03:37:48;;;;;;;2.63;0.30;;;13.50;89.70;;;;;;5048346;28;20060;-42
2022/09/03 03:40:14;;;;;;;2.42;0.30;;;13.50;89.60;;;;;;5048692;28;20385;-42
2022/09/03 03:42:40;;;;;;;1.48;0.20;;;13.50;89.70;;;;;;5048557;28;20102;-42
2022/09/03 03:45:08;;;;;;;1.00;0.20;;;13.40;89.60;;;;;;5048231;28;20498;-43
2022/09/03 03:47:34;;;;;;;0.93;0.52;;;13.40;89.60;;;;;;5048477;28;20481;-42
2022/09/03 03:50:00;;;;;;;2.33;0.30;;;13.30;89.70;;;;;;5047867;28;20049;-44
2022/09/03 03:52:26;;;;;;;1.25;0.28;;;13.40;90.00;;;;;;5048487;28;20033;-43
2022/09/03 03:54:52;;;;;;;0.45;0.20;;;13.30;90.00;;;;;;5048372;28;20486;-43
2022/09/03 03:57:19;;;;;;;0.75;0.20;;;13.40;90.20;;;;;;5048596;28;20033;-42
2022/09/03 03:59:49;;;;;;;1.30;0.30;;;13.20;90.20;;;;;;5048606;28;20367;-42
2022/09/03 04:02:15;;;;;;;3.00;0.30;;;13.20;90.40;;;;;;5048261;28;20041;-42
2022/09/03 04:04:41;;;;;;;0.55;0.22;;;13.10;90.40;;;;;;5048358;28;20083;-44
2022/09/03 04:07:07;;;;;;;2.65;0.30;;;13.00;90.60;;;;;;5047874;28;20044;-46
2022/09/03 04:09:34;;;;;;;1.60;0.40;;;13.00;90.80;;;;;;5047676;28;20128;-44
2022/09/03 04:11:59;;;;;;;5.70;0.50;;;12.60;90.80;;;;;;5047505;28;20056;-45
2022/09/03 04:14:27;;;;;;;1.65;0.40;;;13.00;91.20;;;;;;5047703;28;20041;-46
2022/09/03 04:16:53;;;;;;;1.88;0.20;;;12.80;91.40;;;;;;5047317;28;20478;-42
2022/09/03 04:19:19;;;;;;;2.58;0.30;;;12.70;91.50;;;;;;5047648;28;20048;-45
2022/09/03 04:21:45;;;;;;;1.73;0.20;;;12.60;91.60;;;;;;5048025;28;20052;-42
2022/09/03 04:24:11;;;;;;;3.42;0.28;;;12.40;91.70;;;;;;5047662;28;20122;-44
2022/09/03 04:26:37;;;;;;;2.45;0.63;;;13.20;92.40;;;;;;5047317;28;20453;-42
2022/09/03 04:29:08;;;;;;;2.80;0.50;;;12.40;92.20;;;;;;5045499;28;20057;-44
2022/09/03 04:31:35;;;;;;;1.20;0.50;;;13.10;93.10;;;;;;5047105;28;20044;-42
2022/09/03 04:34:01;;;;;;;3.20;0.60;;;12.20;93.00;;;;;;5047052;28;20041;-44
2022/09/03 04:36:29;;;;;;;1.42;0.45;;;12.10;93.30;;;;;;5047828;28;20332;-41
2022/09/03 04:38:58;;;;;;;1.65;0.57;;;12.30;93.80;;;;;;5047440;28;20048;-45
2022/09/03 04:41:29;;;;;;;2.45;0.60;;;12.00;94.10;;;;;;5047175;28;20041;-43
2022/09/03 04:43:57;;;;;;;3.20;0.63;;;12.20;96.70;;;;;;5047296;28;20411;-42
2022/09/03 04:46:26;;;;;;;3.72;0.50;;;12.00;99.90;;;;;;5047198;28;20549;-42
2022/09/03 04:48:53;;;;;;;2.00;0.80;;;11.60;99.90;;;;;;5047115;28;20049;-43
2022/09/03 04:51:22;;;;;;;2.45;0.77;;;11.60;99.90;;;;;;5046594;28;20079;-44
2022/09/03 04:53:56;;;;;;;6.57;0.65;;;11.80;99.90;;;;;;5046801;28;20479;-42
2022/09/03 04:56:24;;;;;;;1.92;0.50;;;11.40;99.90;;;;;;5046959;28;20041;-42
2022/09/03 04:58:55;;;;;;;1.85;0.65;;;11.80;99.90;;;;;;5046965;28;20056;-43
2022/09/03 05:01:23;;;;;;;1.30;0.73;;;11.80;99.90;;;;;;5046555;28;20095;-42
2022/09/03 05:03:51;;;;;;;1.73;0.85;;;11.60;99.90;;;;;;5046517;28;20048;-42
2022/09/03 05:06:16;;;;;;;2.35;0.60;;;11.50;99.90;;;;;;5046271;28;20044;-43
2022/09/03 05:08:43;;;;;;;2.85;1.00;;;11.20;99.90;;;;;;5046875;28;20052;-41
2022/09/03 05:11:09;;;;;;;2.97;1.02;;;11.70;99.90;;;;;;5046112;28;20040;-43
2022/09/03 05:13:35;;;;;;;4.85;1.50;;;11.20;99.90;;;;;;5046441;28;20041;-41
2022/09/03 05:16:07;;;;;;;3.53;0.95;;;11.80;99.90;;;;;;5045769;28;20061;-47
2022/09/03 05:18:36;;;;;;;1.50;0.60;;;11.50;99.90;;;;;;5046385;28;20056;-42
2022/09/03 05:21:13;;;;;;;3.65;1.10;;;11.90;99.90;;;;;;5045744;28;20286;-41
2022/09/03 05:23:41;;;;;;;4.40;1.00;;;;;;;;;;5046445;28;20376;-44
2022/09/03 05:26:10;;;;;;;12.13;1.05;;;11.20;99.90;;;;;;5046250;28;20049;-43
2022/09/03 05:28:38;;;;;;;14.00;1.17;;;11.70;99.90;;;;;;5046167;28;20048;-42
2022/09/03 05:31:13;;;;;;;8.05;1.35;;;11.50;99.90;;;;;;5046016;28;20076;-43
2022/09/03 05:33:41;;;;;;;7.25;1.30;;;11.80;99.90;;;;;;5046485;28;20305;-43
2022/09/03 05:36:09;;;;;;;4.72;1.00;;;12.10;99.90;;;;;;5045688;28;20495;-42
2022/09/03 05:38:35;;;;;;;8.30;1.40;;;11.70;99.90;;;;;;5045138;28;20525;-43
2022/09/03 05:41:03;;;;;;;5.20;0.77;;;12.30;99.90;;;;;;5046215;28;20049;-42
2022/09/03 05:43:30;;;;;;;12.70;1.40;;;12.00;99.90;;;;;;5046144;28;20048;-42
2022/09/03 05:46:01;;;;;;;9.77;1.40;;;12.20;99.90;;;;;;5045935;28;20399;-42
2022/09/03 05:48:29;;;;;;;4.47;0.82;;;12.20;99.90;;;;;;5045967;28;20041;-43
2022/09/03 05:51:03;;;;;;;3.72;1.00;;;12.40;99.90;;;;;;5046501;28;20134;-42
2022/09/03 05:53:31;;;;;;;3.70;0.57;;;12.10;99.90;;;;;;5048918;28;20437;-42
2022/09/03 05:55:59;;;;;;;3.30;0.95;;;12.30;99.90;;;;;;5050047;28;20079;-43
2022/09/03 05:58:29;;;;;;;3.25;0.80;;;;;;;;;;5049746;28;20044;-42
2022/09/03 06:00:55;;;;;;;1.83;0.60;;;;;;;;;;5049858;28;20403;-41
2022/09/03 06:03:21;;;;;;;3.95;0.60;;;16.00;99.90;;;;;;5049686;28;20499;-42
2022/09/03 06:05:53;;;;;;;2.10;0.65;;;;;;;;;;5050263;28;20115;-42
2022/09/03 06:08:19;;;;;;;1.33;0.80;;;;;;;;;;5049494;28;20474;-42
2022/09/03 06:10:44;;;;;;;5.82;1.08;;;17.40;85.40;;;;;;5050266;28;20044;-42
2022/09/03 06:13:10;;;;;;;2.28;0.40;;;17.40;85.40;;;;;;5049953;28;20045;-43
2022/09/03 06:15:36;;;;;;;1.83;0.57;;;17.40;84.90;;;;;;5049825;28;20052;-42
2022/09/03 06:18:02;;;;;;;2.30;0.73;;;16.80;85.30;;;;;;5049685;28;20049;-43
2022/09/03 06:20:28;;;;;;;2.45;0.50;;;16.40;86.50;;;;;;5049432;28;20102;-42
2022/09/03 06:22:54;;;;;;;1.77;0.40;;;16.10;88.10;;;;;;5049792;28;20041;-43
2022/09/03 06:25:20;;;;;;;1.98;0.55;;;15.70;89.10;;;;;;5049113;28;20186;-43
2022/09/03 06:27:46;;;;;;;3.47;0.60;;;15.70;89.30;;;;;;5049903;28;20522;-42
2022/09/03 06:30:12;;;;;;;2.20;0.60;;;16.20;88.10;;;;;;5049191;28;20064;-42
2022/09/03 06:32:49;;;;;;;1.52;0.30;;;16.30;87.40;;;;;;5049481;28;20041;-42
2022/09/03 06:35:15;;;;;;;1.63;0.60;;;15.90;87.70;;;;;;5049133;28;20045;-42
2022/09/03 06:37:42;;;;;;;5.03;1.73;;;15.70;88.70;;;;;;5049480;28;20037;-42
2022/09/03 06:40:11;;;;;;;2.22;0.32;;;15.60;89.20;;;;;;5047719;28;20075;-42
2022/09/03 06:42:38;;;;;;;1.20;0.50;;;15.60;90.00;;;;;;5048858;28;20048;-42
2022/09/03 06:45:05;;;;;;;1.67;0.50;;;15.50;90.00;;;;;;5048899;28;20051;-42
2022/09/03 06:47:32;;;;;;;2.45;0.57;;;15.50;90.00;;;;;;5048891;28;20071;-43
2022/09/03 06:49:59;;;;;;;1.50;0.40;;;15.50;90.20;;;;;;5048879;28;20037;-43
2022/09/03 06:52:25;;;;;;;3.55;0.60;;;15.50;90.30;;;;;;5048619;28;20040;-42
2022/09/03 06:54:51;;;;;;;2.17;0.50;;;15.70;90.20;;;;;;5049096;28;20037;-41
2022/09/03 06:57:17;;;;;;;2.58;0.30;;;15.90;90.10;;;;;;5048483;28;20048;-42
2022/09/03 06:59:43;;;;;;;1.20;0.52;;;15.80;90.10;;;;;;5048620;28;20133;-42
2022/09/03 07:02:09;;;;;;;4.18;0.40;;;15.80;89.80;;;;;;5048410;28;20060;-42
2022/09/03 07:04:35;;;;;;;1.52;0.30;;;16.10;89.90;;;;;;5048561;28;20774;-42
2022/09/03 07:07:01;;;;;;;1.63;0.45;;;15.90;90.00;;;;;;5048539;28;20128;-43
2022/09/03 07:09:27;;;;;;;1.02;0.40;;;16.00;89.70;;;;;;5048039;28;20095;-42
2022/09/03 07:11:53;;;;;;;4.15;0.80;;;16.00;89.50;;;;;;5048561;28;20076;-42
2022/09/03 07:14:21;;;;;;;2.30;0.40;;;16.20;89.20;;;;;;5048463;28;20124;-42
2022/09/03 07:16:49;;;;;;;2.70;0.38;;;16.00;88.70;;;;;;5048986;28;20065;-43
2022/09/03 07:19:15;;;;;;;1.25;0.50;;;16.10;88.40;;;;;;5048133;28;20383;-43
2022/09/03 07:21:41;;;;;;;0.93;0.40;;;16.20;88.50;;;;;;5047312;28;20463;-44
2022/09/03 07:24:08;;;;;;;1.33;0.57;;;16.10;88.60;;;;;;5046411;28;20076;-42
2022/09/03 07:26:37;;;;;;;2.30;1.02;;;16.20;88.40;;;;;;5047695;28;20041;-43
2022/09/03 07:29:04;;;;;;;3.03;0.50;;;16.30;88.20;;;;;;5048151;28;20064;-43
2022/09/03 07:31:36;;;;;;;3.38;0.50;;;16.40;88.00;;;;;;5047642;28;20048;-43
2022/09/03 07:34:07;;;;;;;2.15;0.38;;;16.40;87.30;;;;;;5047884;28;20063;-43
2022/09/03 07:36:40;;;;;;;1.88;0.30;;;16.50;87.10;;;;;;5047688;28;20403;-44
2022/09/03 07:39:06;;;;;;;2.40;0.40;;;16.50;87.40;;;;;;5048009;28;20126;-43
2022/09/03 07:41:32;;;;;;;1.35;0.45;;;16.60;87.50;;;;;;5047954;28;20118;-43
2022/09/03 07:43:59;;;;;;;1.90;0.25;;;16.70;87.00;;;;;;5048118;28;20120;-42
2022/09/03 07:46:26;;;;;;;6.03;0.43;;;16.80;86.70;;;;;;5048038;28;20057;-43
2022/09/03 07:48:56;;;;;;;1.52;0.32;;;16.80;86.50;;;;;;5047623;28;20060;-43
2022/09/03 07:51:27;;;;;;;3.53;0.40;;;17.00;86.20;;;;;;5047621;28;20078;-43
2022/09/03 07:53:59;;;;;;;1.92;0.50;;;17.00;86.50;;;;;;5047912;28;20045;-43
2022/09/03 07:56:26;;;;;;;2.20;0.30;;;17.20;85.80;;;;;;5047213;28;20033;-43
2022/09/03 07:58:54;;;;;;;2.42;0.30;;;17.30;85.30;;;;;;5047500;28;20630;-42
2022/09/03 08:01:22;;;;;;;1.75;0.40;;;17.40;84.90;;;;;;5047077;28;20291;-42
2022/09/03 08:03:49;;;;;;;3.88;0.43;;;17.50;84.80;;;;;;5047187;28;20882;-43
2022/09/03 08:06:17;;;;;;;1.80;0.20;;;17.80;85.00;;;;;;5047555;28;20056;-44
2022/09/03 08:08:44;;;;;;;1.08;0.20;;;17.80;84.60;;;;;;5047048;28;20068;-42
2022/09/03 08:11:14;;;;;;;0.50;0.20;;;17.90;83.70;;;;;;5047437;28;20049;-44
2022/09/03 08:13:41;;;;;;;2.63;0.20;;;18.10;82.80;;;;;;5047781;28;20037;-43
2022/09/03 08:16:08;;;;;;;2.08;0.38;;;18.40;82.50;;;;;;5046642;28;20075;-43
2022/09/03 08:18:38;;;;;;;2.70;0.28;;;19.30;81.10;;;;;;5046907;28;20045;-43
2022/09/03 08:21:10;;;;;;;2.50;0.20;;;20.40;78.00;;;;;;5047561;28;20044;-43
2022/09/03 08:23:37;;;;;;;2.97;0.40;;;22.40;73.80;;;;;;5047028;28;20033;-44
2022/09/03 08:26:04;;;;;;;1.52;0.28;;;24.20;68.40;;;;;;5047558;28;20045;-42
2022/09/03 08:28:33;;;;;;;3.40;0.35;;;25.80;64.00;;;;;;5046863;28;20040;-43
2022/09/03 08:31:10;;;;;;;1.50;0.20;;;27.20;61.00;;;;;;5046741;28;20486;-43
2022/09/03 08:33:41;;;;;;;3.08;0.20;;;28.20;57.40;;;;;;5046414;28;20060;-48
2022/09/03 08:36:09;;;;;;;3.45;0.20;;;29.00;55.50;;;;;;5047135;28;20041;-43
2022/09/03 08:38:35;;;;;;;1.48;0.30;;;29.90;54.20;;;;;;5046375;28;20159;-45
2022/09/03 08:41:17;;;;;;;1.05;0.35;;;30.40;52.60;;;;;;5046978;28;20395;-43
2022/09/03 08:44:09;;;;;;;2.38;0.30;;;30.30;51.30;;;;;;5047129;28;20482;-43
2022/09/03 08:46:44;;;;;;;2.25;0.35;;;30.40;51.40;;;;;;5042050;28;20491;-44
2022/09/03 08:49:16;;;;;;;3.25;0.30;;;30.80;50.80;;;;;;5047557;28;20048;-47
2022/09/03 08:51:46;;;;;;;2.50;0.30;;;31.20;49.90;;;;;;5047741;28;20048;-43
2022/09/03 08:54:13;;;;;;;1.58;0.20;;;31.70;49.40;;;;;;5048119;28;20351;-43
2022/09/03 08:56:41;;;;;;;2.90;0.20;;;32.20;48.40;;;;;;5047129;28;20041;-44
2022/09/03 08:59:08;;;;;;;1.50;0.20;;;32.90;48.00;;;;;;5047301;28;20028;-44
2022/09/03 09:01:55;;;;;;;2.20;0.30;;;33.50;46.60;;;;;;5046235;28;20041;-43
2022/09/03 09:04:55;;;;;;;1.48;0.40;;;34.10;46.30;;;;;;5046707;28;20433;-45
2022/09/03 09:07:31;;;;;;;0.80;0.10;;;34.30;46.10;;;;;;5046394;28;20533;-45
2022/09/03 09:10:30;;;;;;;1.50;0.20;;;34.30;44.80;;;;;;5046837;28;20052;-44
2022/09/03 09:13:07;;;;;;;0.77;0.20;;;34.60;45.40;;;;;;5046578;28;20077;-48
2022/09/03 09:15:51;;;;;;;1.85;0.30;;;34.80;44.50;;;;;;5046592;28;20064;-45
2022/09/03 09:18:38;;;;;;;4.38;0.40;;;35.00;43.40;;;;;;5046916;28;20471;-46
2022/09/03 09:21:14;;;;;;;2.63;0.40;;;35.20;44.00;;;;;;5046752;28;20443;-48
2022/09/03 09:23:50;;;;;;;1.85;0.30;;;34.90;42.70;;;;;;5046567;28;20052;-45
2022/09/03 09:26:20;;;;;;;3.13;0.25;;;34.50;43.80;;;;;;5046578;28;20055;-48
2022/09/03 09:28:52;;;;;;;2.08;0.20;;;33.80;44.50;;;;;;5045259;28;20045;-45
2022/09/03 09:31:19;;;;;;;3.05;0.38;;;33.10;44.80;;;;;;5046668;28;20048;-43
2022/09/03 09:33:45;;;;;;;2.70;0.20;;;32.10;44.70;;;;;;5044525;28;20120;-46
2022/09/03 09:36:18;;;;;;;3.58;0.30;;;31.50;45.20;;;;;;5046654;28;20036;-44
2022/09/03 09:38:48;;;;;;;1.05;0.10;;;31.70;45.70;;;;;;5046169;28;20056;-45
2022/09/03 09:41:18;;;;;;;1.48;0.10;;;32.10;45.70;;;;;;5045973;28;20041;-45
2022/09/03 09:43:48;;;;;;;2.30;0.15;;;32.20;45.60;;;;;;5046380;28;20049;-45
2022/09/03 09:46:21;;;;;;;3.25;0.28;;;32.00;45.70;;;;;;5046284;28;20040;-48
2022/09/03 09:48:55;;;;;;;5.32;0.20;;;31.80;45.60;;;;;;5045847;28;20455;-47
2022/09/03 09:51:24;;;;;;;4.10;0.25;;;31.60;45.80;;;;;;5046444;28;20071;-45
2022/09/03 09:54:18;;;;;;;1.67;0.10;;;31.40;45.80;;;;;;5045792;28;20044;-48
2022/09/03 09:56:45;;;;;;;1.33;0.30;;;31.10;44.90;;;;;;5045795;28;20500;-46
2022/09/03 09:59:13;;;;;;;2.88;0.20;;;30.60;45.50;;;;;;5046218;28;20070;-45
2022/09/03 10:01:41;;;;;;;1.63;0.20;;;30.20;45.60;;;;;;5045709;28;20058;-46
2022/09/03 10:04:20;;;;;;;2.80;0.10;;;29.90;45.60;;;;;;5045225;28;20494;-46
2022/09/03 10:06:54;;;;;;;3.22;0.20;;;29.80;45.50;;;;;;5045502;28;20651;-44
2022/09/03 10:09:28;;;;;;;6.13;0.65;;;29.80;45.80;;;;;;5045779;28;20132;-43
2022/09/03 10:12:18;;;;;;;0.80;0.20;;;29.90;45.40;;;;;;5045939;28;20068;-44
2022/09/03 10:14:44;;;;;;;2.17;0.28;;;29.70;44.60;;;;;;5045169;28;20037;-43
2022/09/03 10:17:20;;;;;;;3.67;0.30;;;29.40;45.40;;;;;;5045828;28;20375;-46
2022/09/03 10:22:48;;;;;;;1.38;0.20;;;27.70;45.40;;;;;;5045211;28;20342;-45
2022/09/03 10:25:16;;;;;;;3.92;0.30;;;29.20;46.20;;;;;;5045533;28;20561;-48
2022/09/03 10:27:44;;;;;;;3.05;0.10;;;29.30;46.40;;;;;;5045690;28;20051;-43
2022/09/03 10:30:13;;;;;;;2.25;0.20;;;29.80;46.50;;;;;;5046067;28;20045;-47
2022/09/03 10:32:44;;;;;;;4.32;0.30;;;30.20;46.30;;;;;;5045609;28;20044;-45
2022/09/03 10:35:32;;;;;;;5.97;0.20;;;30.30;45.50;;;;;;5045858;28;20498;-44
2022/09/03 10:38:26;;;;;;;1.88;0.20;;;30.30;45.00;;;;;;5045061;28;20044;-47
2022/09/03 10:41:08;;;;;;;2.13;0.20;;;29.90;45.80;;;;;;5048946;28;20049;-44
2022/09/03 10:43:57;;;;;;;3.17;0.20;;;29.50;45.40;;;;;;5049074;28;20051;-45
2022/09/03 10:46:27;;;;;;;5.38;0.35;;;28.80;46.20;;;;;;5049479;28;20394;-47
2022/09/03 10:49:23;;;;;;;2.60;0.28;;;27.90;46.80;;;;;;5048717;28;20053;-45
2022/09/03 10:52:07;;;;;;;2.15;0.30;;;27.20;47.10;;;;;;5049053;28;20356;-44
2022/09/03 10:55:06;;;;;;;6.78;0.30;;;26.60;47.70;;;;;;5048699;28;20060;-44
2022/09/03 10:57:45;;;;;;;1.73;0.20;;;26.10;47.90;;;;;;5048944;28;20418;-44
2022/09/03 11:00:13;;;;;;;0.82;0.20;;;25.80;49.10;;;;;;5048786;28;20045;-44
2022/09/03 11:03:07;;;;;;;6.32;0.28;;;25.50;49.20;;;;;;5049381;28;20115;-44
2022/09/03 11:05:41;;;;;;;0.95;0.20;;;25.30;49.60;;;;;;5048646;28;20491;-43
2022/09/03 11:08:10;;;;;;;0.60;0.20;;;25.10;49.80;;;;;;5048419;28;20053;-46
2022/09/03 11:10:51;;;;;;;5.60;0.20;;;25.10;50.10;;;;;;5047308;28;20037;-45
2022/09/03 11:13:21;;;;;;;1.42;0.20;;;25.00;49.60;;;;;;5048839;28;20052;-43
2022/09/03 11:15:52;;;;;;;1.33;0.25;;;24.90;49.90;;;;;;5048315;28;20057;-44
2022/09/03 11:18:20;;;;;;;1.50;0.20;;;24.80;50.00;;;;;;5049314;28;20352;-43
2022/09/03 11:20:49;;;;;;;0.73;0.20;;;24.70;49.90;;;;;;5049009;28;20124;-44
2022/09/03 11:23:17;;;;;;;2.53;0.30;;;24.70;50.70;;;;;;5047497;28;20045;-43
2022/09/03 11:25:51;;;;;;;3.25;0.20;;;24.70;50.60;;;;;;5048658;28;20066;-43
2022/09/03 11:28:25;;;;;;;3.63;0.20;;;24.70;51.00;;;;;;5048121;28;20419;-43
2022/09/03 11:31:25;;;;;;;1.58;0.20;;;24.70;50.50;;;;;;5048001;28;20048;-45
2022/09/03 11:33:57;;;;;;;2.00;0.25;;;24.60;51.40;;;;;;5047954;28;20076;-46
2022/09/03 11:36:35;;;;;;;2.92;0.20;;;24.70;51.10;;;;;;5048187;28;20118;-44
2022/09/03 11:39:32;;;;;;;1.52;0.20;;;24.70;50.90;;;;;;5047963;28;20112;-44
2022/09/03 11:42:26;;;;;;;0.90;0.25;;;24.60;50.70;;;;;;5047416;28;20590;-44
2022/09/03 11:44:58;;;;;;;3.03;0.10;;;24.50;50.20;;;;;;5048156;28;20091;-44
2022/09/03 11:47:36;;;;;;;;;;;24.40;50.30;;;;;;5049072;28;20036;-45
2022/09/03 11:50:29;;;;;;;0.80;0.20;;;24.40;51.00;;;;;;5046445;28;19986;-46
2022/09/03 11:53:07;;;;;;;2.08;0.22;;;24.40;50.20;;;;;;5046706;28;20503;-43
2022/09/03 11:55:53;;;;;;;2.35;0.20;;;24.50;50.80;;;;;;5047739;28;20045;-43
2022/09/03 11:58:23;;;;;;;2.25;0.10;;;24.60;51.50;;;;;;5047682;28;20052;-43
2022/09/03 12:00:53;;;;;;;3.47;0.20;;;24.60;51.50;;;;;;5047431;28;20803;-44
2022/09/03 12:03:36;;;;;;;1.70;0.10;;;24.60;50.70;;;;;;5046172;28;20490;-44
2022/09/03 12:06:18;;;;;;;4.30;0.20;;;24.60;51.90;;;;;;5047328;28;20367;-43
2022/09/03 12:09:04;;;;;;;4.32;0.30;;;24.70;50.90;;;;;;5047777;28;20041;-44
2022/09/03 12:11:51;;;;;;;3.72;0.30;;;24.70;50.40;;;;;;5047896;28;20499;-44
2022/09/03 12:15:01;;;;;;;1.55;0.20;;;24.80;51.30;;;;;;5047677;28;20040;-43
2022/09/03 12:18:17;;;;;;;3.75;0.20;;;24.90;50.50;;;;;;5043947;28;20429;-43
2022/09/03 12:20:34;;;;;;;2.13;0.40;;;24.80;50.30;;;;;;5047098;28;20504;-44
2022/09/03 12:23:02;;;;;;;4.70;0.20;;;24.80;50.70;;;;;;5047217;28;20083;-43
2022/09/03 12:25:28;;;;;;;1.38;0.30;;;24.80;50.60;;;;;;5046694;28;20037;-44
2022/09/03 12:27:54;;;;;;;2.45;0.20;;;24.70;50.50;;;;;;5046861;28;20040;-43
2022/09/03 12:30:24;;;;;;;2.95;0.10;;;24.60;50.60;;;;;;5046777;28;20053;-43
2022/09/03 12:32:51;;;;;;;1.63;0.10;;;24.70;50.90;;;;;;5047086;28;20524;-45
2022/09/03 12:35:20;;;;;;;2.30;0.15;;;24.60;51.20;;;;;;5046937;28;20272;-43
2022/09/03 12:37:46;;;;;;;1.42;0.10;;;24.70;51.00;;;;;;5047246;28;20041;-44
2022/09/03 12:40:20;;;;;;;0.50;0.13;;;24.70;51.10;;;;;;5047305;28;20048;-44
2022/09/03 12:42:45;;;;;;;1.77;0.10;;;24.60;50.70;;;;;;5047208;28;20055;-43
2022/09/03 12:45:14;;;;;;;3.92;0.20;;;24.60;51.10;;;;;;5046573;28;20048;-43
2022/09/03 12:47:41;;;;;;;3.40;0.20;;;24.60;51.00;;;;;;5047025;28;20124;-45
2022/09/03 12:50:13;;;;;;;5.15;0.20;;;24.60;51.10;;;;;;5046945;28;20148;-45
2022/09/03 12:52:47;;;;;;;1.17;0.20;;;24.60;50.30;;;;;;5046958;28;20053;-45
2022/09/03 12:55:18;;;;;;;0.45;0.10;;;24.60;50.00;;;;;;5046673;28;20049;-45
2022/09/03 12:57:53;;;;;;;0.90;0.10;;;24.50;50.40;;;;;;5046886;28;20068;-43
2022/09/03 13:00:19;;;;;;;2.95;0.20;;;24.50;51.30;;;;;;5046516;28;20044;-43
2022/09/03 13:03:03;;;;;;;3.30;0.20;;;24.60;51.50;;;;;;5046902;28;20045;-43
2022/09/03 13:05:34;;;;;;;2.00;0.22;;;24.60;51.30;;;;;;5046495;28;20140;-43
2022/09/03 13:08:04;;;;;;;0.40;0.10;;;24.60;51.60;;;;;;5046474;28;20778;-47
2022/09/03 13:10:37;;;;;;;4.82;0.30;;;24.60;51.30;;;;;;5046357;28;20128;-43
2022/09/03 13:13:15;;;;;;;3.88;0.13;;;24.60;50.30;;;;;;5046297;28;20120;-45
2022/09/03 13:15:41;;;;;;;2.78;0.30;;;24.60;49.90;;;;;;5046155;28;20067;-43
2022/09/03 13:18:17;;;;;;;2.78;0.20;;;24.60;50.20;;;;;;5046762;28;20049;-43
2022/09/03 13:21:04;;;;;;;2.97;0.30;;;26.00;51.00;;;;;;5046456;28;20280;-43